Terminal Aerodrome Forecast
Issued by NWS Sterling, VA

Current Version | Previous Version | Graphics & Text | Print | Product List | Glossary On
Versions: 1 2 3 4 5 6 7 8 9 10 11 12 13 14 15 16 17 18 19 20 21 22 23 24 25 26 27 28 29 30 31 32 33 34
000
FTUS41 KLWX 302036 AAA
TAFIAD
TAF AMD
KIAD 302036Z 3021/3124 19011KT P6SM BKN060
     FM302200 19010KT P6SM SCT060
     FM310200 17006KT P6SM SCT050
     FM310600 16004KT P6SM BKN040
     FM311400 21006KT P6SM SCT110
     FM311700 20007KT P6SM BKN060=

USA.gov is the U.S. government's official web portal to all federal, state and local government web resources and services.